Time;durP1;ratioP1;P1;durP2;ratioP2;P2;SDS_P1;SDS_P2;PMS_P1;PMS_P2;Temp;Humidity;BMP_temperature;BMP_pressure;BME280_temperature;BME280_humidity;BME280_pressure;Samples;Min_cycle;Max_cycle;Signal;HPM_P1;HPM_P2
2021/07/01 00:01:54;;;;;;;6.18;3.80;;;;;;;;;;4935236;28;20111;-75
2021/07/01 00:04:22;;;;;;;4.75;3.80;;;;;;;;;;4930981;29;20056;-74
2021/07/01 00:06:48;;;;;;;4.63;3.63;;;;;;;;;;4928248;28;20645;-76
2021/07/01 00:09:15;;;;;;;5.43;3.83;;;;;;;;;;4929958;28;20040;-73
2021/07/01 00:11:42;;;;;;;4.40;3.90;;;;;;;;;;4928895;28;20075;-75
2021/07/01 00:14:09;;;;;;;5.57;3.83;;;;;;;;;;4930140;28;20071;-77
2021/07/01 00:16:35;;;;;;;5.38;4.22;;;;;;;;;;4921567;28;20075;-74
2021/07/01 00:19:02;;;;;;;4.85;3.75;;;;;;;;;;4932892;28;20530;-74
2021/07/01 00:21:28;;;;;;;4.70;3.88;;;;;;;;;;4925990;28;20141;-74
2021/07/01 00:23:55;;;;;;;5.43;3.67;;;;;;;;;;4927893;28;20120;-75
2021/07/01 00:26:22;;;;;;;5.35;3.80;;;;;;;;;;4929944;28;20074;-75
2021/07/01 00:28:48;;;;;;;5.20;3.88;;;;;;;;;;4952545;28;20312;-75
2021/07/01 00:31:15;;;;;;;6.40;4.10;;;;;;;;;;4928495;28;20506;-75
2021/07/01 00:33:41;;;;;;;4.85;3.85;;;;;;;;;;4928577;29;20036;-74
2021/07/01 00:36:08;;;;;;;5.57;3.80;;;;;;;;;;4928298;29;20058;-75
2021/07/01 00:38:34;;;;;;;5.55;4.00;;;;;;;;;;4927261;28;20506;-75
2021/07/01 00:41:01;;;;;;;5.45;4.25;;;;;;;;;;4925724;28;20163;-74
2021/07/01 00:43:27;;;;;;;6.28;3.95;;;;;;;;;;4931053;28;20750;-73
2021/07/01 00:45:53;;;;;;;4.82;4.00;;;;;;;;;;4922159;28;20064;-75
2021/07/01 00:48:20;;;;;;;4.57;4.03;;;;;;;;;;4925048;28;20060;-74
2021/07/01 00:50:46;;;;;;;4.97;3.50;;;;;;;;;;4925868;28;20455;-75
2021/07/01 00:53:13;;;;;;;4.18;3.42;;;;;;;;;;4928278;28;20051;-74
2021/07/01 00:55:39;;;;;;;7.47;4.30;;;;;;;;;;4923249;29;20134;-75
2021/07/01 00:58:06;;;;;;;5.82;3.92;;;;;;;;;;4932475;28;20063;-76
2021/07/01 01:03:18;;;;;;;4.55;3.58;;;;;;;;;;4928844;28;20133;-74
2021/07/01 01:05:45;;;;;;;5.63;3.70;;;;;;;;;;4928353;28;20095;-75
2021/07/01 01:08:12;;;;;;;4.88;3.83;;;;;;;;;;4932088;29;20174;-74
2021/07/01 01:10:38;;;;;;;4.72;3.45;;;;;;;;;;4928859;28;20052;-74
2021/07/01 01:13:06;;;;;;;6.32;3.70;;;;;;;;;;4928589;28;20059;-73
2021/07/01 01:15:32;;;;;;;5.13;3.70;;;;;;;;;;4929624;29;20056;-75
2021/07/01 01:17:59;;;;;;;4.70;3.60;;;;;;;;;;4925835;28;20105;-75
2021/07/01 01:20:25;;;;;;;4.40;3.60;;;;;;;;;;4929388;28;20063;-75
2021/07/01 01:22:51;;;;;;;4.65;4.05;;;;;;;;;;4927966;29;20074;-74
2021/07/01 01:25:18;;;;;;;4.05;3.50;;;;;;;;;;4928459;29;20066;-75
2021/07/01 01:27:44;;;;;;;4.65;3.92;;;;;;;;;;4927058;28;20507;-75
2021/07/01 01:30:11;;;;;;;5.45;3.85;;;;;;;;;;4927039;28;20522;-74
2021/07/01 01:32:39;;;;;;;4.88;3.72;;;;;;;;;;4929040;28;20071;-74
2021/07/01 01:35:05;;;;;;;4.25;3.63;;;;;;;;;;4925862;29;20063;-75
2021/07/01 01:37:32;;;;;;;4.43;3.42;;;;;;;;;;4929520;28;20582;-75
2021/07/01 01:39:58;;;;;;;4.25;3.10;;;;;;;;;;4925053;28;21538;-75
2021/07/01 01:42:24;;;;;;;4.35;3.47;;;;;;;;;;4922036;29;20119;-74
2021/07/01 01:44:51;;;;;;;4.32;3.35;;;;;;;;;;4928183;28;20052;-73
2021/07/01 01:47:18;;;;;;;4.78;3.50;;;;;;;;;;4927201;29;20494;-75
2021/07/01 01:49:45;;;;;;;4.72;3.22;;;;;;;;;;4929398;28;20059;-75
2021/07/01 01:52:12;;;;;;;4.38;3.53;;;;;;;;;;4928446;28;20067;-75
2021/07/01 01:54:38;;;;;;;6.30;3.38;;;;;;;;;;4919848;29;20059;-74
2021/07/01 01:57:05;;;;;;;4.60;3.50;;;;;;;;;;4928839;28;20067;-75
2021/07/01 01:59:31;;;;;;;4.18;3.30;;;;;;;;;;4926289;29;20075;-75
2021/07/01 02:01:58;;;;;;;4.13;3.47;;;;;;;;;;4929591;28;20063;-74
2021/07/01 02:04:25;;;;;;;4.70;3.00;;;;;;;;;;4925178;28;20062;-76
2021/07/01 02:06:54;;;;;;;3.92;2.88;;;;;;;;;;4929287;28;20059;-74
2021/07/01 02:09:21;;;;;;;5.85;3.58;;;;;;;;;;4925657;28;20071;-74
2021/07/01 02:11:47;;;;;;;4.07;3.10;;;;;;;;;;4927271;28;20083;-74
2021/07/01 02:14:14;;;;;;;4.32;3.28;;;;;;;;;;4931213;28;20059;-73
2021/07/01 02:16:41;;;;;;;5.18;3.50;;;;;;;;;;4927174;28;20067;-74
2021/07/01 02:19:07;;;;;;;3.72;3.10;;;;;;;;;;4934644;28;20070;-75
2021/07/01 02:21:33;;;;;;;4.30;2.88;;;;;;;;;;4931368;29;20079;-75
2021/07/01 02:24:00;;;;;;;3.33;2.88;;;;;;;;;;4932597;28;20459;-74
2021/07/01 02:26:26;;;;;;;4.18;2.90;;;;;;;;;;4931312;28;20060;-76
2021/07/01 02:28:53;;;;;;;4.30;2.88;;;;;;;;;;4926792;28;20487;-74
2021/07/01 02:31:19;;;;;;;6.35;3.30;;;;;;;;;;4928959;28;20071;-74
2021/07/01 02:33:45;;;;;;;4.03;3.15;;;;;;;;;;4929674;28;20145;-73
2021/07/01 02:36:12;;;;;;;4.20;3.40;;;;;;;;;;4927859;28;20067;-74
2021/07/01 02:38:38;;;;;;;4.85;3.42;;;;;;;;;;4931426;28;20067;-76
2021/07/01 02:41:05;;;;;;;5.47;2.90;;;;;;;;;;4932142;28;20070;-75
2021/07/01 02:43:31;;;;;;;4.50;3.10;;;;;;;;;;4931036;29;20446;-75
2021/07/01 02:45:57;;;;;;;6.05;3.35;;;;;;;;;;4931171;28;20118;-75
2021/07/01 02:48:24;;;;;;;6.30;2.85;;;;;;;;;;4931854;28;20032;-74
2021/07/01 02:50:50;;;;;;;3.33;2.90;;;;;;;;;;4929550;28;20440;-74
2021/07/01 02:53:17;;;;;;;3.55;2.70;;;;;;;;;;4933456;29;20066;-76
2021/07/01 02:55:43;;;;;;;3.90;3.13;;;;;;;;;;4931721;28;20067;-75
2021/07/01 02:58:09;;;;;;;3.35;2.70;;;;;;;;;;4931306;29;20114;-75
2021/07/01 03:00:36;;;;;;;5.75;3.00;;;;;;;;;;4929885;28;20463;-75
2021/07/01 03:03:02;;;;;;;4.57;2.88;;;;;;;;;;4931852;28;20043;-75
2021/07/01 03:05:29;;;;;;;3.80;2.22;;;;;;;;;;4938472;29;20710;-76
2021/07/01 03:07:55;;;;;;;4.10;2.47;;;;;;;;;;4933071;29;20060;-75
2021/07/01 03:10:21;;;;;;;4.35;2.75;;;;;;;;;;4932304;29;20075;-74
2021/07/01 03:12:48;;;;;;;3.80;2.47;;;;;;;;;;4922487;28;20656;-75
2021/07/01 03:15:14;;;;;;;3.20;2.35;;;;;;;;;;4934661;28;20072;-75
2021/07/01 03:17:41;;;;;;;4.05;2.92;;;;;;;;;;4928025;29;20063;-74
2021/07/01 03:20:07;;;;;;;3.00;2.55;;;;;;;;;;4930939;28;20139;-75
2021/07/01 03:22:34;;;;;;;4.85;2.70;;;;;;;;;;4930923;28;20075;-76
2021/07/01 03:25:00;;;;;;;3.60;2.60;;;;;;;;;;4930675;29;20064;-75
2021/07/01 03:27:27;;;;;;;3.28;2.50;;;;;;;;;;4930070;28;20075;-76
2021/07/01 03:29:53;;;;;;;3.65;2.55;;;;;;;;;;4928177;28;20071;-73
2021/07/01 03:32:19;;;;;;;3.00;2.50;;;;;;;;;;4927872;29;20459;-73
2021/07/01 03:34:46;;;;;;;3.15;2.10;;;;;;;;;;4931624;29;20068;-74
2021/07/01 03:37:12;;;;;;;2.85;2.28;;;;;;;;;;4930203;29;20075;-73
2021/07/01 03:39:39;;;;;;;2.92;2.40;;;;;;;;;;4930333;29;20078;-75
2021/07/01 03:42:06;;;;;;;3.03;2.30;;;;;;;;;;4930700;28;20605;-75
2021/07/01 03:44:33;;;;;;;7.00;2.70;;;;;;;;;;4929663;28;20126;-75
2021/07/01 03:46:59;;;;;;;3.40;2.38;;;;;;;;;;4931781;29;20052;-74
2021/07/01 03:49:26;;;;;;;3.67;2.40;;;;;;;;;;4930644;29;20055;-75
2021/07/01 03:51:52;;;;;;;3.72;2.50;;;;;;;;;;4930863;28;20070;-75
2021/07/01 03:54:19;;;;;;;3.08;2.35;;;;;;;;;;4926221;28;20500;-75
2021/07/01 03:56:45;;;;;;;5.43;2.67;;;;;;;;;;4931019;28;20099;-74
2021/07/01 03:59:12;;;;;;;3.45;2.25;;;;;;;;;;4932209;29;20821;-74
2021/07/01 04:01:39;;;;;;;3.30;2.60;;;;;;;;;;4929210;28;20079;-75
2021/07/01 04:04:06;;;;;;;3.33;2.63;;;;;;;;;;4927417;28;20136;-75
2021/07/01 04:06:33;;;;;;;3.58;2.30;;;;;;;;;;4931262;28;20043;-75
2021/07/01 04:08:59;;;;;;;3.17;2.53;;;;;;;;;;4929698;29;20059;-74
2021/07/01 04:11:26;;;;;;;3.60;2.67;;;;;;;;;;4943521;28;20081;-74
2021/07/01 04:13:54;;;;;;;3.38;2.58;;;;;;;;;;4928629;28;20044;-75
2021/07/01 04:16:20;;;;;;;2.80;2.00;;;;;;;;;;4931705;28;20059;-75
2021/07/01 04:18:47;;;;;;;4.20;2.58;;;;;;;;;;4926733;28;20102;-76
2021/07/01 04:21:13;;;;;;;3.80;2.40;;;;;;;;;;4930715;28;20078;-75
2021/07/01 04:23:40;;;;;;;3.65;2.40;;;;;;;;;;4930650;28;20127;-76
2021/07/01 04:26:06;;;;;;;3.35;2.00;;;;;;;;;;4928853;28;20051;-74
2021/07/01 04:28:33;;;;;;;3.70;2.42;;;;;;;;;;4930099;28;20063;-76
2021/07/01 04:31:00;;;;;;;2.90;2.28;;;;;;;;;;4930726;29;20504;-74
2021/07/01 04:33:26;;;;;;;4.38;2.67;;;;;;;;;;4926791;29;20071;-74
2021/07/01 04:35:53;;;;;;;7.05;3.20;;;;;;;;;;4929192;28;20499;-74
2021/07/01 04:38:19;;;;;;;4.25;2.70;;;;;;;;;;4928408;29;20059;-74
2021/07/01 04:40:46;;;;;;;3.17;2.70;;;;;;;;;;4926444;28;20059;-73
2021/07/01 04:43:13;;;;;;;4.43;2.58;;;;;;;;;;4929761;29;20046;-75
2021/07/01 04:45:39;;;;;;;3.95;2.90;;;;;;;;;;4927103;28;20055;-75
2021/07/01 04:48:06;;;;;;;4.22;2.90;;;;;;;;;;4928170;29;20063;-76
2021/07/01 04:50:33;;;;;;;4.30;3.00;;;;;;;;;;4928438;28;20089;-75
2021/07/01 04:53:00;;;;;;;4.38;3.17;;;;;;;;;;4933820;28;20557;-75
2021/07/01 04:55:26;;;;;;;3.78;2.92;;;;;;;;;;4926827;28;20040;-74
2021/07/01 04:57:53;;;;;;;4.25;3.00;;;;;;;;;;4929747;28;24236;-75
2021/07/01 05:00:19;;;;;;;4.25;3.17;;;;;;;;;;4929796;29;20503;-74
2021/07/01 05:02:45;;;;;;;4.25;2.95;;;;;;;;;;4928941;28;20063;-75
2021/07/01 05:05:12;;;;;;;5.07;3.20;;;;;;;;;;4929792;28;20071;-74
2021/07/01 05:07:45;;;;;;;4.57;3.00;;;;;;;;;;4929703;28;20488;-76
2021/07/01 05:10:12;;;;;;;4.25;3.03;;;;;;;;;;4922688;28;20072;-75
2021/07/01 05:12:38;;;;;;;5.57;3.15;;;;;;;;;;4925248;29;20063;-75
2021/07/01 05:15:05;;;;;;;5.05;3.58;;;;;;;;;;4928442;28;20034;-73
2021/07/01 05:17:33;;;;;;;6.43;3.40;;;;;;;;;;4928264;28;20063;-75
2021/07/01 05:20:00;;;;;;;6.13;3.78;;;;;;;;;;4927455;29;20175;-75
2021/07/01 05:22:26;;;;;;;4.75;3.30;;;;;;;;;;4925548;28;20067;-74
2021/07/01 05:24:53;;;;;;;5.07;3.55;;;;;;;;;;4926059;29;20188;-74
2021/07/01 05:27:19;;;;;;;4.30;3.30;;;;;;;;;;4929273;28;20039;-75
2021/07/01 05:29:46;;;;;;;4.50;3.42;;;;;;;;;;4923965;28;20061;-74
2021/07/01 05:32:13;;;;;;;4.75;3.40;;;;;;;;;;4933691;28;20066;-74
2021/07/01 05:34:40;;;;;;;5.32;3.38;;;;;;;;;;4926855;28;20063;-74
2021/07/01 05:37:06;;;;;;;5.57;3.60;;;;;;;;;;4929829;28;20047;-74
2021/07/01 05:39:33;;;;;;;6.57;3.80;;;;;;;;;;4924943;28;20506;-76
2021/07/01 05:41:59;;;;;;;6.03;3.65;;;;;;;;;;4928005;28;20063;-75
2021/07/01 05:44:26;;;;;;;5.85;4.10;;;;;;;;;;4926851;28;20070;-75
2021/07/01 05:46:52;;;;;;;7.25;4.28;;;;;;;;;;4927195;28;20091;-75
2021/07/01 05:49:18;;;;;;;8.18;3.60;;;;;;;;;;4929580;28;20692;-74
2021/07/01 05:51:47;;;;;;;5.28;2.92;;;;;;;;;;4930344;28;20473;-74
2021/07/01 05:56:46;;;;;;;3.85;2.72;;;;;;;;;;4931367;29;20114;-75
2021/07/01 05:59:12;;;;;;;4.25;3.28;;;;;;;;;;4932101;29;20158;-74
2021/07/01 06:01:39;;;;;;;4.65;2.80;;;;;;;;;;4933312;28;20075;-74
2021/07/01 06:04:06;;;;;;;7.05;3.55;;;;;;;;;;4929423;29;20059;-75
2021/07/01 06:06:34;;;;;;;4.15;2.80;;;;;;;;;;4930801;28;20083;-75
2021/07/01 06:09:01;;;;;;;6.07;3.50;;;;;;;;;;4931321;28;21548;-75
2021/07/01 06:11:28;;;;;;;3.65;2.72;;;;;;;;;;4931860;28;20067;-75
2021/07/01 06:13:55;;;;;;;4.05;3.20;;;;;;;;;;4922999;28;22819;-75
2021/07/01 06:16:24;;;;;;;4.88;3.08;;;;;;;;;;4928060;29;21951;-74
2021/07/01 06:18:50;;;;;;;4.07;2.85;;;;;;;;;;4930382;29;20094;-76
2021/07/01 06:21:17;;;;;;;6.32;3.10;;;;;;;;;;4933407;28;20087;-75
2021/07/01 06:23:47;;;;;;;10.20;3.55;;;;;;;;;;4931385;28;20156;-76
2021/07/01 06:26:14;;;;;;;4.65;2.80;;;;;;;;;;4933531;28;20066;-75
2021/07/01 06:28:42;;;;;;;6.50;3.10;;;;;;;;;;4932372;28;20047;-75
2021/07/01 06:31:10;;;;;;;5.40;3.22;;;;;;;;;;4933991;29;20047;-74
2021/07/01 06:33:42;;;;;;;4.85;3.15;;;;;;;;;;4932822;29;20146;-75
2021/07/01 06:36:09;;;;;;;6.32;3.25;;;;;;;;;;4933133;28;20059;-77
2021/07/01 06:38:36;;;;;;;5.18;3.00;;;;;;;;;;4930176;28;20075;-74
2021/07/01 06:41:03;;;;;;;4.30;2.58;;;;;;;;;;4931006;28;20111;-76
2021/07/01 06:43:30;;;;;;;7.63;3.42;;;;;;;;;;4929952;29;20060;-75
2021/07/01 06:45:57;;;;;;;6.30;3.92;;;;;;;;;;4928868;29;20074;-76
2021/07/01 06:48:24;;;;;;;7.47;3.47;;;;;;;;;;4930925;29;20059;-75
2021/07/01 06:50:56;;;;;;;4.97;3.10;;;;;;;;;;4931071;28;20676;-74
2021/07/01 06:53:23;;;;;;;5.70;3.55;;;;;;;;;;4929636;28;20067;-76
2021/07/01 06:55:51;;;;;;;7.18;3.40;;;;;;;;;;4927580;28;20059;-76
2021/07/01 06:58:18;;;;;;;7.93;3.72;;;;;;;;;;4929468;28;20123;-75
2021/07/01 07:00:45;;;;;;;5.95;3.53;;;;;;;;;;4931926;28;20063;-75
2021/07/01 07:03:16;;;;;;;6.38;3.67;;;;;;;;;;4931285;29;20070;-74
2021/07/01 07:05:43;;;;;;;4.38;2.85;;;;;;;;;;4933009;28;20074;-76
2021/07/01 07:08:12;;;;;;;4.10;2.40;;;;;;;;;;4932696;28;20070;-72
2021/07/01 07:10:41;;;;;;;6.95;3.30;;;;;;;;;;4932103;28;20059;-75
2021/07/01 07:13:07;;;;;;;4.68;2.67;;;;;;;;;;4933628;28;20074;-74
2021/07/01 07:15:34;;;;;;;4.20;2.70;;;;;;;;;;4931644;28;20476;-74
2021/07/01 07:18:01;;;;;;;4.15;2.33;;;;;;;;;;4930940;28;20115;-75
2021/07/01 07:20:28;;;;;;;4.85;2.80;;;;;;;;;;4928299;28;20440;-76
2021/07/01 07:22:55;;;;;;;4.93;3.17;;;;;;;;;;4930498;28;20074;-76
2021/07/01 07:25:21;;;;;;;4.53;2.47;;;;;;;;;;4929411;28;20031;-75
2021/07/01 07:27:55;;;;;;;5.22;2.70;;;;;;;;;;4931590;28;20066;-75
2021/07/01 07:30:26;;;;;;;5.95;2.60;;;;;;;;;;4931469;28;20062;-75
2021/07/01 07:32:54;;;;;;;4.30;2.80;;;;;;;;;;4933721;28;20793;-75
2021/07/01 07:35:21;;;;;;;3.80;2.72;;;;;;;;;;4930966;28;20063;-75
2021/07/01 07:37:47;;;;;;;4.28;2.67;;;;;;;;;;4928584;28;20526;-75
2021/07/01 07:40:14;;;;;;;6.95;2.92;;;;;;;;;;4929173;28;20055;-76
2021/07/01 07:42:43;;;;;;;4.78;2.42;;;;;;;;;;4928694;28;20153;-75
2021/07/01 07:45:09;;;;;;;6.32;3.45;;;;;;;;;;4930013;28;20040;-75
2021/07/01 07:47:36;;;;;;;3.97;2.60;;;;;;;;;;4929689;28;20119;-75
2021/07/01 07:50:02;;;;;;;5.15;3.38;;;;;;;;;;4931598;28;20095;-75
2021/07/01 07:52:31;;;;;;;5.07;2.92;;;;;;;;;;4930841;29;20062;-75
2021/07/01 07:54:59;;;;;;;5.72;2.22;;;;;;;;;;4927682;28;20094;-76
2021/07/01 07:57:29;;;;;;;5.00;2.55;;;;;;;;;;4930986;28;20110;-74
2021/07/01 07:59:57;;;;;;;5.80;3.20;;;;;;;;;;4934044;28;20115;-76
2021/07/01 08:02:23;;;;;;;5.03;2.63;;;;;;;;;;4928949;28;20064;-76
2021/07/01 08:04:50;;;;;;;5.10;2.88;;;;;;;;;;4929390;28;20134;-76
2021/07/01 08:07:17;;;;;;;6.43;2.90;;;;;;;;;;4930713;28;20055;-75
2021/07/01 08:09:43;;;;;;;4.88;2.42;;;;;;;;;;4929440;28;20060;-75
2021/07/01 08:12:10;;;;;;;3.53;2.50;;;;;;;;;;4930196;29;20099;-74
2021/07/01 08:14:42;;;;;;;4.57;2.55;;;;;;;;;;4929053;28;20075;-75
2021/07/01 08:17:08;;;;;;;4.75;2.47;;;;;;;;;;4930253;28;20495;-76
2021/07/01 08:19:35;;;;;;;5.43;2.92;;;;;;;;;;4921075;28;20056;-74
2021/07/01 08:22:02;;;;;;;3.65;2.53;;;;;;;;;;4932605;28;20154;-75
2021/07/01 08:24:29;;;;;;;5.13;2.83;;;;;;;;;;4931558;28;20114;-76
2021/07/01 08:26:56;;;;;;;5.55;3.05;;;;;;;;;;4933773;28;20111;-76
2021/07/01 08:29:23;;;;;;;6.68;3.33;;;;;;;;;;4930734;29;20063;-75
2021/07/01 08:31:50;;;;;;;4.57;3.00;;;;;;;;;;4931495;28;20634;-75
2021/07/01 08:34:18;;;;;;;7.55;3.00;;;;;;;;;;4928289;28;20067;-76
2021/07/01 08:36:46;;;;;;;4.07;2.47;;;;;;;;;;4928691;29;20067;-75
2021/07/01 08:39:12;;;;;;;4.13;2.58;;;;;;;;;;4934445;28;20173;-75
2021/07/01 08:41:42;;;;;;;5.38;2.53;;;;;;;;;;4931813;28;20070;-77
2021/07/01 08:44:16;;;;;;;4.70;2.95;;;;;;;;;;4930239;28;20056;-75
2021/07/01 08:46:43;;;;;;;6.50;3.00;;;;;;;;;;4927512;28;20070;-76
2021/07/01 08:49:10;;;;;;;5.10;2.90;;;;;;;;;;4929491;28;20051;-74
2021/07/01 08:51:37;;;;;;;6.38;2.60;;;;;;;;;;4928439;28;20052;-74
2021/07/01 08:54:14;;;;;;;6.18;2.60;;;;;;;;;;4934312;28;20023;-76
2021/07/01 08:56:40;;;;;;;4.57;3.13;;;;;;;;;;4928568;28;20072;-75
2021/07/01 08:59:07;;;;;;;5.72;2.95;;;;;;;;;;4932635;29;20070;-75
2021/07/01 09:01:37;;;;;;;4.90;2.58;;;;;;;;;;4926539;28;20091;-76
2021/07/01 09:04:04;;;;;;;4.38;2.75;;;;;;;;;;4934970;28;20058;-77
2021/07/01 09:06:36;;;;;;;7.55;3.20;;;;;;;;;;4929196;29;20135;-75
2021/07/01 09:09:05;;;;;;;5.30;3.25;;;;;;;;;;4932638;28;22411;-76
2021/07/01 09:11:35;;;;;;;7.70;3.08;;;;;;;;;;4930292;28;20080;-76
2021/07/01 09:14:04;;;;;;;6.93;2.67;;;;;;;;;;4925033;28;20115;-75
2021/07/01 09:16:31;;;;;;;5.70;2.55;;;;;;;;;;4928561;28;20449;-75
2021/07/01 09:18:59;;;;;;;4.57;2.65;;;;;;;;;;4934231;28;20119;-75
2021/07/01 09:21:25;;;;;;;5.85;2.80;;;;;;;;;;4929856;28;20066;-77
2021/07/01 09:23:52;;;;;;;6.15;3.45;;;;;;;;;;4933883;28;20475;-76
2021/07/01 09:26:20;;;;;;;3.63;2.17;;;;;;;;;;4931535;28;20051;-76
2021/07/01 09:28:47;;;;;;;9.00;3.95;;;;;;;;;;4928765;28;20059;-74
2021/07/01 09:31:16;;;;;;;6.63;3.17;;;;;;;;;;4931957;28;20059;-74
2021/07/01 09:33:42;;;;;;;6.68;3.17;;;;;;;;;;4926045;28;20479;-75
2021/07/01 09:36:09;;;;;;;5.65;2.72;;;;;;;;;;4928104;28;20095;-76
2021/07/01 09:38:36;;;;;;;4.93;2.50;;;;;;;;;;4927440;28;20070;-76
2021/07/01 09:41:02;;;;;;;6.45;3.13;;;;;;;;;;4928785;29;20092;-75
2021/07/01 09:43:29;;;;;;;6.93;3.13;;;;;;;;;;4926932;28;20099;-77
2021/07/01 09:46:00;;;;;;;5.55;2.30;;;;;;;;;;4930517;28;20070;-77
2021/07/01 09:48:32;;;;;;;5.50;3.17;;;;;;;;;;4926032;28;20083;-77
2021/07/01 09:51:02;;;;;;;5.28;3.13;;;;;;;;;;4927934;29;20166;-76
2021/07/01 09:53:30;;;;;;;7.72;3.30;;;;;;;;;;4927290;29;20086;-76
2021/07/01 09:56:00;;;;;;;7.63;3.10;;;;;;;;;;4928505;28;20051;-78
2021/07/01 09:58:29;;;;;;;5.28;2.85;;;;;;;;;;4927432;28;20059;-77
2021/07/01 10:00:56;;;;;;;11.48;4.30;;;;;;;;;;4917337;29;20059;-78
2021/07/01 10:03:22;;;;;;;8.40;3.22;;;;;;;;;;4927962;28;20075;-76
2021/07/01 10:05:49;;;;;;;6.65;3.10;;;;;;;;;;4927717;28;20067;-76
2021/07/01 10:08:15;;;;;;;6.13;3.53;;;;;;;;;;4926822;28;20059;-76
2021/07/01 10:10:52;;;;;;;5.85;3.60;;;;;;;;;;4920724;28;20080;-75
2021/07/01 10:13:20;;;;;;;9.45;3.20;;;;;;;;;;4926630;29;20047;-76
2021/07/01 10:15:50;;;;;;;5.40;2.95;;;;;;;;;;4925910;28;20083;-76
2021/07/01 10:18:22;;;;;;;4.75;3.10;;;;;;;;;;4939508;28;20071;-76
2021/07/01 10:20:50;;;;;;;4.63;2.78;;;;;;;;;;4942052;28;20125;-75
2021/07/01 10:23:22;;;;;;;4.43;2.50;;;;;;;;;;4932849;28;20110;-75
2021/07/01 10:25:51;;;;;;;4.93;2.80;;;;;;;;;;4927887;28;21074;-74
2021/07/01 10:28:19;;;;;;;4.95;3.00;;;;;;;;;;4931723;28;20075;-75
2021/07/01 10:31:01;;;;;;;4.35;2.63;;;;;;;;;;4926927;28;20119;-75
2021/07/01 10:33:33;;;;;;;4.70;2.78;;;;;;;;;;4929762;28;20075;-76
2021/07/01 10:36:02;;;;;;;3.25;2.35;;;;;;;;;;4925509;28;20430;-75
2021/07/01 10:38:41;;;;;;;3.60;2.67;;;;;;;;;;4922884;29;20126;-76
2021/07/01 10:41:07;;;;;;;4.20;2.60;;;;;;;;;;4920637;29;22293;-76
2021/07/01 10:43:44;;;;;;;3.15;2.30;;;;;;;;;;4933743;28;20102;-75
2021/07/01 10:46:11;;;;;;;4.45;2.60;;;;;;;;;;4930748;28;20226;-74
2021/07/01 10:48:38;;;;;;;3.38;2.50;;;;;;;;;;4930247;28;20099;-75
2021/07/01 10:51:11;;;;;;;3.72;2.58;;;;;;;;;;4931833;28;20516;-76
2021/07/01 10:53:46;;;;;;;4.18;2.63;;;;;;;;;;4930155;28;20071;-75
2021/07/01 10:56:15;;;;;;;4.72;2.60;;;;;;;;;;4930860;29;20070;-75
2021/07/01 10:58:42;;;;;;;8.32;2.25;;;;;;;;;;4929672;28;20067;-74
2021/07/01 11:01:08;;;;;;;4.68;2.53;;;;;;;;;;4932498;29;20063;-75
2021/07/01 11:03:35;;;;;;;4.57;2.47;;;;;;;;;;4933279;28;20144;-77
2021/07/01 11:06:03;;;;;;;3.78;2.22;;;;;;;;;;4933180;28;20059;-76
2021/07/01 11:08:36;;;;;;;5.50;2.60;;;;;;;;;;4935352;28;20118;-75
2021/07/01 11:11:04;;;;;;;6.28;2.75;;;;;;;;;;4928618;28;20115;-75
2021/07/01 11:13:31;;;;;;;4.53;2.60;;;;;;;;;;4930453;28;20063;-76
2021/07/01 11:16:06;;;;;;;3.38;2.33;;;;;;;;;;4929892;28;20503;-77
2021/07/01 11:18:43;;;;;;;3.05;2.22;;;;;;;;;;4927108;29;20064;-74
2021/07/01 11:21:11;;;;;;;3.42;2.22;;;;;;;;;;4934197;28;21109;-74
2021/07/01 11:23:38;;;;;;;3.65;2.17;;;;;;;;;;4945520;28;20075;-76
2021/07/01 11:26:24;;;;;;;2.95;2.10;;;;;;;;;;4932752;29;20064;-75
2021/07/01 11:28:50;;;;;;;3.58;2.45;;;;;;;;;;4930334;28;20063;-74
2021/07/01 11:31:17;;;;;;;4.30;2.30;;;;;;;;;;4932431;29;20134;-74
2021/07/01 11:33:51;;;;;;;4.35;2.40;;;;;;;;;;4932921;29;20067;-74
2021/07/01 11:36:19;;;;;;;3.58;2.30;;;;;;;;;;4931159;29;20067;-74
2021/07/01 11:38:47;;;;;;;3.70;2.45;;;;;;;;;;4930047;28;20063;-74
2021/07/01 11:41:14;;;;;;;3.20;2.30;;;;;;;;;;4925475;28;20075;-75
2021/07/01 11:43:41;;;;;;;4.15;2.42;;;;;;;;;;4935293;28;20067;-73
2021/07/01 11:46:07;;;;;;;7.13;2.50;;;;;;;;;;4929293;29;20517;-74
2021/07/01 11:48:34;;;;;;;3.92;2.28;;;;;;;;;;4930959;28;20127;-76
2021/07/01 11:51:02;;;;;;;5.53;2.58;;;;;;;;;;4926654;28;21074;-74
2021/07/01 11:53:28;;;;;;;4.85;2.22;;;;;;;;;;4927489;28;20130;-75
2021/07/01 11:55:59;;;;;;;3.50;2.10;;;;;;;;;;4940137;29;20468;-76
2021/07/01 11:58:26;;;;;;;4.25;2.40;;;;;;;;;;4931018;29;20484;-76
2021/07/01 12:00:53;;;;;;;3.15;2.10;;;;;;;;;;4930266;28;20069;-76
2021/07/01 12:03:20;;;;;;;3.47;2.10;;;;;;;;;;4931907;29;20070;-77
2021/07/01 12:05:47;;;;;;;4.05;2.00;;;;;;;;;;4930745;28;20078;-74
2021/07/01 12:08:14;;;;;;;3.10;1.98;;;;;;;;;;4925466;29;20067;-75
2021/07/01 12:10:41;;;;;;;5.10;2.25;;;;;;;;;;4938564;28;20090;-77
2021/07/01 12:13:26;;;;;;;4.78;1.90;;;;;;;;;;4931205;29;20119;-75
2021/07/01 12:16:11;;;;;;;3.33;2.33;;;;;;;;;;4928346;28;20079;-75
2021/07/01 12:18:54;;;;;;;2.97;1.95;;;;;;;;;;4926460;28;20110;-75
2021/07/01 12:21:22;;;;;;;2.45;1.88;;;;;;;;;;4931766;28;20032;-74
2021/07/01 12:23:49;;;;;;;2.42;1.73;;;;;;;;;;4927399;28;20060;-75
2021/07/01 12:26:48;;;;;;;4.18;1.98;;;;;;;;;;4934576;28;20122;-75
2021/07/01 12:29:19;;;;;;;7.25;2.00;;;;;;;;;;4912366;29;21257;-75
2021/07/01 12:31:45;;;;;;;3.42;1.70;;;;;;;;;;4942590;28;20114;-75
2021/07/01 12:34:12;;;;;;;2.95;1.83;;;;;;;;;;4929367;28;20072;-75
2021/07/01 12:36:41;;;;;;;4.03;2.15;;;;;;;;;;4923528;28;20134;-76
2021/07/01 12:39:12;;;;;;;2.60;1.90;;;;;;;;;;4928559;28;20055;-74
2021/07/01 12:41:39;;;;;;;3.42;2.00;;;;;;;;;;4929803;28;20062;-78
2021/07/01 12:44:09;;;;;;;2.95;1.90;;;;;;;;;;4926319;29;20123;-78
2021/07/01 12:46:42;;;;;;;3.92;1.67;;;;;;;;;;4891669;29;20071;-79
2021/07/01 12:49:31;;;;;;;4.07;1.92;;;;;;;;;;4923736;29;20050;-77
2021/07/01 12:52:01;;;;;;;2.60;1.52;;;;;;;;;;4933954;28;20059;-78
2021/07/01 12:54:30;;;;;;;2.45;1.40;;;;;;;;;;4925136;28;20487;-77
2021/07/01 12:56:57;;;;;;;2.67;1.70;;;;;;;;;;4927340;28;20116;-77
2021/07/01 12:59:23;;;;;;;4.05;1.60;;;;;;;;;;4929225;28;20062;-77
2021/07/01 13:01:50;;;;;;;2.47;1.60;;;;;;;;;;4927987;28;20075;-79
2021/07/01 13:04:23;;;;;;;1.92;1.38;;;;;;;;;;4935867;28;20502;-77
2021/07/01 13:06:50;;;;;;;5.30;1.58;;;;;;;;;;4928365;28;20412;-78
2021/07/01 13:09:29;;;;;;;3.63;1.50;;;;;;;;;;4929146;29;20118;-78
2021/07/01 13:11:56;;;;;;;2.50;1.42;;;;;;;;;;4930489;28;20047;-79
2021/07/01 13:14:26;;;;;;;2.22;1.40;;;;;;;;;;4926672;29;20047;-78
2021/07/01 13:17:19;;;;;;;2.88;1.48;;;;;;;;;;4927937;28;20491;-78
2021/07/01 13:19:49;;;;;;;2.78;1.60;;;;;;;;;;4926568;28;20056;-78
2021/07/01 13:22:18;;;;;;;4.53;2.50;;;;;;;;;;4928604;28;20079;-78
2021/07/01 13:24:50;;;;;;;2.20;1.60;;;;;;;;;;4926329;29;20043;-77
2021/07/01 13:27:36;;;;;;;3.67;1.77;;;;;;;;;;4931532;29;20166;-77
2021/07/01 13:30:14;;;;;;;2.83;1.52;;;;;;;;;;4928825;28;22951;-78
2021/07/01 13:32:41;;;;;;;2.30;1.42;;;;;;;;;;4920776;28;20126;-77
2021/07/01 13:35:08;;;;;;;2.95;1.30;;;;;;;;;;4931040;28;20063;-77
2021/07/01 13:37:35;;;;;;;2.80;1.30;;;;;;;;;;4927019;28;20039;-76
2021/07/01 13:40:18;;;;;;;2.65;1.50;;;;;;;;;;4926730;28;20474;-77
2021/07/01 13:42:45;;;;;;;3.42;1.60;;;;;;;;;;4929012;28;20479;-79
2021/07/01 13:45:16;;;;;;;1.88;1.15;;;;;;;;;;4927627;28;20469;-78
2021/07/01 13:47:45;;;;;;;2.40;1.45;;;;;;;;;;4929133;28;20637;-77
2021/07/01 13:50:29;;;;;;;3.20;1.60;;;;;;;;;;4922035;28;20051;-76
2021/07/01 13:52:58;;;;;;;3.42;1.42;;;;;;;;;;4927798;28;20123;-76
2021/07/01 13:55:28;;;;;;;1.98;1.25;;;;;;;;;;4927173;28;20063;-76
2021/07/01 13:57:55;;;;;;;5.18;1.60;;;;;;;;;;4924395;28;21115;-75
2021/07/01 14:00:23;;;;;;;4.30;1.58;;;;;;;;;;4923498;28;20063;-76
2021/07/01 14:02:50;;;;;;;2.65;1.23;;;;;;;;;;4924141;28;20390;-75
2021/07/01 14:05:26;;;;;;;3.80;1.48;;;;;;;;;;4926389;28;20051;-76
2021/07/01 14:07:53;;;;;;;2.88;1.30;;;;;;;;;;4929298;28;20091;-76
2021/07/01 14:10:19;;;;;;;2.25;1.30;;;;;;;;;;4927659;28;20498;-74
2021/07/01 14:12:46;;;;;;;3.25;1.75;;;;;;;;;;4927206;28;20130;-75
2021/07/01 14:15:13;;;;;;;4.05;1.30;;;;;;;;;;4932607;29;20059;-75
2021/07/01 14:17:40;;;;;;;2.85;1.35;;;;;;;;;;4934572;29;20059;-76
2021/07/01 14:20:07;;;;;;;3.63;1.38;;;;;;;;;;4931437;28;20059;-77
2021/07/01 14:22:38;;;;;;;1.85;1.17;;;;;;;;;;4926746;29;20138;-75
2021/07/01 14:25:19;;;;;;;2.63;1.60;;;;;;;;;;4929853;29;21155;-76
2021/07/01 14:27:46;;;;;;;3.00;1.55;;;;;;;;;;4929834;28;20060;-75
2021/07/01 14:30:13;;;;;;;3.63;1.45;;;;;;;;;;4935791;29;20043;-76
2021/07/01 14:32:41;;;;;;;2.05;1.20;;;;;;;;;;4946107;28;20043;-75
2021/07/01 14:35:26;;;;;;;4.95;1.40;;;;;;;;;;4930771;29;20079;-75
2021/07/01 14:38:06;;;;;;;3.42;1.30;;;;;;;;;;4929706;28;20576;-75
2021/07/01 14:40:33;;;;;;;2.47;1.55;;;;;;;;;;4932642;28;20071;-76
2021/07/01 14:43:06;;;;;;;3.55;1.70;;;;;;;;;;4932118;28;20067;-75
2021/07/01 14:45:34;;;;;;;3.55;1.45;;;;;;;;;;4931063;28;20067;-76
2021/07/01 14:48:03;;;;;;;4.50;1.40;;;;;;;;;;4929086;28;20043;-76
2021/07/01 14:50:29;;;;;;;3.50;1.60;;;;;;;;;;4932750;28;20076;-76
2021/07/01 14:52:56;;;;;;;2.72;1.35;;;;;;;;;;4930746;28;20590;-75
2021/07/01 14:55:22;;;;;;;3.55;1.55;;;;;;;;;;4936517;28;20070;-75